Terminal Aerodrome Forecast
Issued by NWS

Home | Current Version | Previous Version | Text Only | Print | Product List | Glossary On
Versions: 1 2 3 4 5 6 7 8 9 10 11 12 13 14 15 16 17
000
FTUS43 KDTX 220818 AAA
TAFMBS
TAF AMD
KMBS 220818Z 2208/2306 20005KT 1/4SM FG VV002
     FM221400 21007KT 1SM BR OVC005
     FM221600 22010KT 4SM BR SCT015
     FM221700 23012KT P6SM SCT025 BKN150
     FM222200 20007KT P6SM SCT200=

USA.gov is the U.S. government's official web portal to all federal, state and local government web resources and services.